createdAt,value
2022-07-31T00:00:37.647Z,103.03
2022-07-31T00:03:26.062Z,101.28
2022-07-31T00:06:14.484Z,100.03
2022-07-31T00:09:02.880Z,101.60
2022-07-31T00:11:51.271Z,99.82
2022-07-31T00:14:39.632Z,98.38
2022-07-31T00:17:29.515Z,99.00
2022-07-31T00:20:18.956Z,98.97
2022-07-31T00:23:07.524Z,96.88
2022-07-31T00:25:59.369Z,93.07
2022-07-31T00:28:48.321Z,91.47
2022-07-31T00:31:36.664Z,90.28
2022-07-31T00:34:28.696Z,89.25
2022-07-31T00:37:17.046Z,89.63
2022-07-31T00:40:06.967Z,87.78
2022-07-31T00:42:55.355Z,88.72
2022-07-31T00:45:44.525Z,86.75
2022-07-31T00:48:32.963Z,87.30
2022-07-31T00:51:23.741Z,84.88
2022-07-31T00:54:22.357Z,84.07
2022-07-31T00:57:11.623Z,85.25
2022-07-31T01:00:00.256Z,85.10
2022-07-31T01:02:48.814Z,84.65
2022-07-31T01:05:37.352Z,82.95
2022-07-31T01:08:27.153Z,82.50
2022-07-31T01:11:23.001Z,82.05
2022-07-31T01:14:11.950Z,81.50
2022-07-31T01:17:02.908Z,81.05
2022-07-31T01:19:53.060Z,81.30
2022-07-31T01:23:18.893Z,81.95
2022-07-31T01:26:48.734Z,83.68
2022-07-31T01:29:42.985Z,84.40
2022-07-31T01:32:35.921Z,84.13
2022-07-31T01:35:29.778Z,85.22
2022-07-31T01:38:23.223Z,86.10
2022-07-31T01:41:14.421Z,83.55
2022-07-31T01:44:05.363Z,82.53
2022-07-31T01:46:58.657Z,82.50
2022-07-31T01:49:49.497Z,83.20
2022-07-31T01:52:41.718Z,82.72
2022-07-31T01:56:02.586Z,83.93
2022-07-31T01:58:44.070Z,82.43
2022-07-31T02:01:56.824Z,82.05
2022-07-31T02:04:47.278Z,80.22
2022-07-31T02:07:39.182Z,80.90
2022-07-31T02:10:30.424Z,80.93
2022-07-31T02:13:20.099Z,80.85
2022-07-31T02:16:09.570Z,81.68
2022-07-31T02:19:02.121Z,81.65
2022-07-31T02:21:50.876Z,82.32
2022-07-31T02:24:39.608Z,80.53
2022-07-31T02:27:53.827Z,81.93
2022-07-31T02:30:40.073Z,83.00
2022-07-31T02:33:31.706Z,82.65
2022-07-31T02:36:23.407Z,81.90
2022-07-31T02:39:13.074Z,80.03
2022-07-31T02:42:02.947Z,81.25
2022-07-31T02:44:52.791Z,80.45
2022-07-31T02:47:41.339Z,81.32
2022-07-31T02:50:32.931Z,80.13
2022-07-31T02:53:23.395Z,80.75
2022-07-31T02:56:15.849Z,81.18
2022-07-31T02:59:05.332Z,80.30
2022-07-31T03:02:08.442Z,79.10
2022-07-31T03:05:02.274Z,79.63
2022-07-31T03:07:51.977Z,77.95
2022-07-31T03:10:41.903Z,78.15
2022-07-31T03:13:33.163Z,77.70
2022-07-31T03:16:23.401Z,78.03
2022-07-31T03:19:13.443Z,75.63
2022-07-31T03:22:02.395Z,76.65
2022-07-31T03:24:52.522Z,77.07
2022-07-31T03:27:43.040Z,76.35
2022-07-31T03:30:44.493Z,76.80
2022-07-31T03:33:32.961Z,75.80
2022-07-31T03:36:21.469Z,75.13
2022-07-31T03:39:09.811Z,74.93
2022-07-31T03:42:05.723Z,74.72
2022-07-31T03:44:56.767Z,75.50
2022-07-31T03:47:45.452Z,75.70
2022-07-31T03:50:34.084Z,75.40
2022-07-31T03:53:24.668Z,75.35
2022-07-31T03:56:14.561Z,75.65
2022-07-31T03:59:04.439Z,75.65
2022-07-31T04:02:10.434Z,75.18
2022-07-31T04:05:10.110Z,76.30
2022-07-31T04:08:01.045Z,75.35
2022-07-31T04:10:50.192Z,75.10
2022-07-31T04:13:41.342Z,75.25
2022-07-31T04:16:29.806Z,75.22
2022-07-31T04:19:19.881Z,72.95
2022-07-31T04:22:08.998Z,71.25
2022-07-31T04:24:58.733Z,70.70
2022-07-31T04:28:17.578Z,69.40
2022-07-31T04:31:07.353Z,67.47
2022-07-31T04:33:59.052Z,66.20
2022-07-31T04:36:48.752Z,64.00
2022-07-31T04:39:37.558Z,62.17
2022-07-31T04:42:26.110Z,61.17
2022-07-31T04:45:14.960Z,59.22
2022-07-31T04:48:03.613Z,57.28
2022-07-31T04:50:52.098Z,56.28
2022-07-31T04:53:41.749Z,55.17
2022-07-31T04:56:37.700Z,53.00
2022-07-31T04:59:57.679Z,50.60
2022-07-31T05:02:35.957Z,49.45
2022-07-31T05:05:24.427Z,48.15
2022-07-31T05:08:12.768Z,48.45
2022-07-31T05:11:25.584Z,48.63
2022-07-31T05:14:16.903Z,48.45
2022-07-31T05:17:05.413Z,47.22
2022-07-31T05:20:13.370Z,47.97
2022-07-31T05:23:27.989Z,48.90
2022-07-31T05:26:47.226Z,48.88
2022-07-31T05:29:35.679Z,49.17
2022-07-31T05:32:24.089Z,49.58
2022-07-31T05:35:13.408Z,50.25
2022-07-31T05:38:02.539Z,51.50
2022-07-31T05:41:13.045Z,53.40
2022-07-31T05:44:22.801Z,54.83
2022-07-31T05:47:11.746Z,55.08
2022-07-31T05:50:00.201Z,55.88
2022-07-31T05:52:49.586Z,56.78
2022-07-31T05:56:00.980Z,58.28
2022-07-31T05:59:10.070Z,58.67
2022-07-31T06:02:02.169Z,57.28
2022-07-31T06:04:55.022Z,56.90
2022-07-31T06:07:51.341Z,56.85
2022-07-31T06:10:40.396Z,56.33
2022-07-31T06:13:30.388Z,54.88
2022-07-31T06:16:24.715Z,56.03
2022-07-31T06:19:14.503Z,54.92
2022-07-31T06:22:03.166Z,54.35
2022-07-31T06:24:52.554Z,52.85
2022-07-31T06:27:42.221Z,51.80
2022-07-31T06:30:30.760Z,52.83
2022-07-31T06:33:37.408Z,53.85
2022-07-31T06:36:28.094Z,55.10
2022-07-31T06:39:20.486Z,55.72
2022-07-31T06:42:09.263Z,54.35
2022-07-31T06:45:00.350Z,54.42
2022-07-31T06:48:17.812Z,55.50
2022-07-31T06:54:26.945Z,55.85
2022-07-31T06:57:16.632Z,57.40
2022-07-31T07:00:19.774Z,56.42
2022-07-31T07:03:08.832Z,57.63
2022-07-31T07:05:57.930Z,57.70
2022-07-31T07:08:46.448Z,59.10
2022-07-31T07:11:39.348Z,59.10
2022-07-31T07:14:27.672Z,58.95
2022-07-31T07:17:16.481Z,57.92
2022-07-31T07:20:05.974Z,57.50
2022-07-31T07:22:54.426Z,57.63
2022-07-31T07:26:09.538Z,56.97
2022-07-31T07:28:59.636Z,57.38
2022-07-31T07:31:48.076Z,58.72
2022-07-31T07:34:37.008Z,58.13
2022-07-31T07:37:25.549Z,56.70
2022-07-31T07:40:14.059Z,56.08
2022-07-31T07:43:03.295Z,56.78
2022-07-31T07:45:54.142Z,55.97
2022-07-31T07:48:42.726Z,57.20
2022-07-31T07:51:59.606Z,59.30
2022-07-31T07:55:00.491Z,58.83
2022-07-31T07:58:18.182Z,59.20
2022-07-31T08:01:28.384Z,59.13
2022-07-31T08:04:25.691Z,60.67
2022-07-31T08:07:14.258Z,59.97
2022-07-31T08:10:03.365Z,57.70
2022-07-31T08:13:05.872Z,58.63
2022-07-31T08:16:23.869Z,59.15
2022-07-31T08:19:17.178Z,59.13
2022-07-31T08:22:06.085Z,59.47
2022-07-31T08:24:54.682Z,60.22
2022-07-31T08:27:43.008Z,60.83
2022-07-31T08:30:31.389Z,59.93
2022-07-31T08:33:20.700Z,59.78
2022-07-31T08:36:17.327Z,61.77
2022-07-31T08:39:05.980Z,61.77
2022-07-31T08:41:57.274Z,60.45
2022-07-31T08:44:47.807Z,60.67
2022-07-31T08:47:42.795Z,61.43
2022-07-31T08:50:36.976Z,62.97
2022-07-31T08:53:33.091Z,63.20
2022-07-31T08:56:27.082Z,63.28
2022-07-31T08:59:17.545Z,61.03
2022-07-31T09:02:06.621Z,59.83
2022-07-31T09:04:59.669Z,60.27
2022-07-31T09:07:48.323Z,59.83
2022-07-31T09:10:38.264Z,58.78
2022-07-31T09:13:26.931Z,59.63
2022-07-31T09:16:16.683Z,59.38
2022-07-31T09:19:52.988Z,59.20
2022-07-31T09:22:23.625Z,59.73
2022-07-31T09:25:16.306Z,58.55
2022-07-31T09:28:07.948Z,58.67
2022-07-31T09:30:57.274Z,60.03
2022-07-31T09:34:28.709Z,60.00
2022-07-31T09:37:37.675Z,58.47
2022-07-31T09:40:57.048Z,57.00
2022-07-31T09:44:12.948Z,54.95
2022-07-31T09:47:02.546Z,53.90
2022-07-31T09:49:56.034Z,52.47
2022-07-31T09:52:44.543Z,52.30
2022-07-31T09:55:33.881Z,52.53
2022-07-31T09:58:23.046Z,52.27
2022-07-31T10:01:14.249Z,51.88
2022-07-31T10:04:05.368Z,52.15
2022-07-31T10:06:55.344Z,51.80
2022-07-31T10:09:45.029Z,52.45
2022-07-31T10:12:36.853Z,52.08
2022-07-31T10:15:27.654Z,50.70
2022-07-31T10:18:47.186Z,51.03
2022-07-31T10:22:01.784Z,53.22
2022-07-31T10:24:55.249Z,53.00
2022-07-31T10:27:44.569Z,51.55
2022-07-31T10:30:34.968Z,49.92
2022-07-31T10:33:42.911Z,49.05
2022-07-31T10:36:59.776Z,50.65
2022-07-31T10:40:04.291Z,51.53
2022-07-31T10:43:14.103Z,51.33
2022-07-31T10:46:02.651Z,49.22
2022-07-31T10:49:08.311Z,49.05
2022-07-31T10:52:28.082Z,48.67
2022-07-31T10:55:35.084Z,49.40
2022-07-31T10:58:48.565Z,49.28
2022-07-31T11:02:00.790Z,50.20
2022-07-31T11:05:17.793Z,50.60
2022-07-31T11:08:28.596Z,51.37
2022-07-31T11:11:33.512Z,50.70
2022-07-31T11:14:40.557Z,53.70
2022-07-31T11:18:21.039Z,53.78
2022-07-31T11:21:40.026Z,54.17
2022-07-31T11:24:29.988Z,53.70
2022-07-31T11:27:18.334Z,52.42
2022-07-31T11:30:13.012Z,52.83
2022-07-31T11:33:01.991Z,54.80
2022-07-31T11:35:50.381Z,55.70
2022-07-31T11:38:39.883Z,56.08
2022-07-31T11:41:42.651Z,56.15
2022-07-31T11:44:33.112Z,56.80
2022-07-31T11:48:12.873Z,56.75
2022-07-31T11:50:32.419Z,56.80
2022-07-31T11:53:21.737Z,57.30
2022-07-31T11:56:10.151Z,55.70
2022-07-31T11:59:00.026Z,55.60
2022-07-31T12:01:49.214Z,56.77
2022-07-31T12:04:38.254Z,57.40
2022-07-31T12:07:26.715Z,58.33
2022-07-31T12:10:15.705Z,59.70
2022-07-31T12:13:04.188Z,59.50
2022-07-31T12:16:03.302Z,60.50
2022-07-31T12:18:56.565Z,60.67
2022-07-31T12:21:46.320Z,60.97
2022-07-31T12:24:34.784Z,59.27
2022-07-31T12:27:23.181Z,58.13
2022-07-31T12:30:16.864Z,58.17
2022-07-31T12:33:08.627Z,56.95
2022-07-31T12:35:57.423Z,55.97
2022-07-31T12:38:48.362Z,56.15
2022-07-31T12:41:43.672Z,55.10
2022-07-31T12:44:32.195Z,54.88
2022-07-31T12:47:26.337Z,54.15
2022-07-31T12:50:16.311Z,53.55
2022-07-31T12:53:05.918Z,54.10
2022-07-31T12:55:54.321Z,53.42
2022-07-31T12:58:42.863Z,54.15
2022-07-31T13:01:31.306Z,53.00
2022-07-31T13:04:19.821Z,52.70
2022-07-31T13:07:09.916Z,54.35
2022-07-31T13:10:18.994Z,54.97
2022-07-31T13:13:06.749Z,56.78
2022-07-31T13:15:55.210Z,57.13
2022-07-31T13:18:43.682Z,57.88
2022-07-31T13:21:48.300Z,58.20
2022-07-31T13:24:39.567Z,58.85
2022-07-31T13:27:28.057Z,59.07
2022-07-31T13:30:16.633Z,58.90
2022-07-31T13:33:05.119Z,59.80
2022-07-31T13:35:53.425Z,61.40
2022-07-31T13:38:41.877Z,61.90
2022-07-31T13:41:34.285Z,62.97
2022-07-31T13:44:22.695Z,63.80
2022-07-31T13:47:11.273Z,63.53
2022-07-31T13:49:59.730Z,64.25
2022-07-31T13:52:48.095Z,65.25
2022-07-31T13:55:36.862Z,66.23
2022-07-31T13:58:28.276Z,66.67
2022-07-31T14:01:16.893Z,66.57
2022-07-31T14:04:05.780Z,67.10
2022-07-31T14:06:54.263Z,66.77
2022-07-31T14:09:47.144Z,67.72
2022-07-31T14:12:44.179Z,69.15
2022-07-31T14:15:34.267Z,70.13
2022-07-31T14:18:23.546Z,69.57
2022-07-31T14:21:12.137Z,69.93
2022-07-31T14:24:05.563Z,70.03
2022-07-31T14:26:54.020Z,71.18
2022-07-31T14:29:42.360Z,71.97
2022-07-31T14:32:32.279Z,70.80
2022-07-31T14:35:20.638Z,70.55
2022-07-31T14:38:09.144Z,70.18
2022-07-31T14:40:57.525Z,70.97
2022-07-31T14:43:46.030Z,70.10
2022-07-31T14:46:34.510Z,69.63
2022-07-31T14:49:24.451Z,70.25
2022-07-31T14:52:12.914Z,71.07
2022-07-31T14:55:02.147Z,70.85
2022-07-31T14:57:51.919Z,71.80
2022-07-31T15:00:40.389Z,72.35
2022-07-31T15:03:28.752Z,71.75
2022-07-31T15:06:41.397Z,70.60
2022-07-31T15:09:27.648Z,71.67
2022-07-31T15:12:17.081Z,70.50
2022-07-31T15:15:06.949Z,69.95
2022-07-31T15:17:55.604Z,69.60
2022-07-31T15:20:44.227Z,68.30
2022-07-31T15:23:34.484Z,68.50
2022-07-31T15:26:24.379Z,69.35
2022-07-31T15:29:13.434Z,68.95
2022-07-31T15:32:02.039Z,68.30
2022-07-31T15:34:50.558Z,67.40
2022-07-31T15:37:40.160Z,66.05
2022-07-31T15:40:30.689Z,66.10
2022-07-31T15:43:19.370Z,65.97
2022-07-31T15:46:09.121Z,65.78
2022-07-31T15:48:57.594Z,67.10
2022-07-31T15:51:46.185Z,67.40
2022-07-31T15:54:34.656Z,65.85
2022-07-31T15:57:25.297Z,64.53
2022-07-31T16:00:14.720Z,63.83
2022-07-31T16:03:03.327Z,63.03
2022-07-31T16:05:56.006Z,62.20
2022-07-31T16:08:44.782Z,63.05
2022-07-31T16:12:03.585Z,62.30
2022-07-31T16:14:43.524Z,63.08
2022-07-31T16:17:38.988Z,62.42
2022-07-31T16:20:27.471Z,61.70
2022-07-31T16:23:16.050Z,62.55
2022-07-31T16:26:04.668Z,61.80
2022-07-31T16:28:54.336Z,61.30
2022-07-31T16:31:44.602Z,61.72
2022-07-31T16:34:32.930Z,61.40
2022-07-31T16:37:21.442Z,60.90
2022-07-31T16:40:32.120Z,62.40
2022-07-31T16:43:50.348Z,61.78
2022-07-31T16:46:29.228Z,62.03
2022-07-31T16:49:29.809Z,61.97
2022-07-31T16:52:25.362Z,63.00
2022-07-31T16:55:14.530Z,61.87
2022-07-31T16:58:02.881Z,63.22
2022-07-31T17:00:51.461Z,62.33
2022-07-31T17:04:01.736Z,62.23
2022-07-31T17:06:49.714Z,63.27
2022-07-31T17:09:38.107Z,63.72
2022-07-31T17:12:26.501Z,64.23
2022-07-31T17:15:14.850Z,63.67
2022-07-31T17:18:03.268Z,62.57
2022-07-31T17:20:52.122Z,62.95
2022-07-31T17:23:50.881Z,62.63
2022-07-31T17:26:39.804Z,62.15
2022-07-31T17:29:28.253Z,63.42
2022-07-31T17:32:17.268Z,63.03
2022-07-31T17:35:06.616Z,63.83
2022-07-31T17:37:55.100Z,64.13
2022-07-31T17:40:44.912Z,64.80
2022-07-31T17:43:49.930Z,66.57
2022-07-31T17:46:48.020Z,67.20
2022-07-31T17:49:37.644Z,67.50
2022-07-31T17:52:26.242Z,68.37
2022-07-31T17:55:14.719Z,69.00
2022-07-31T17:58:04.639Z,69.87
2022-07-31T18:00:53.564Z,69.17
2022-07-31T18:03:42.020Z,69.53
2022-07-31T18:06:30.504Z,69.27
2022-07-31T18:09:20.558Z,69.17
2022-07-31T18:12:13.581Z,70.97
2022-07-31T18:15:06.573Z,72.07
2022-07-31T18:17:55.138Z,72.73
2022-07-31T18:20:45.438Z,72.93
2022-07-31T18:23:33.867Z,72.27
2022-07-31T18:26:23.143Z,72.97
2022-07-31T18:29:11.737Z,73.27
2022-07-31T18:32:01.834Z,73.27
2022-07-31T18:34:50.588Z,73.93
2022-07-31T18:37:39.152Z,74.40
2022-07-31T18:40:27.562Z,75.50
2022-07-31T18:43:16.194Z,75.80
2022-07-31T18:46:04.659Z,76.17
2022-07-31T18:48:56.146Z,76.30
2022-07-31T18:51:45.180Z,76.73
2022-07-31T18:54:33.673Z,77.80
2022-07-31T18:57:22.856Z,76.77
2022-07-31T19:00:12.527Z,76.80
2022-07-31T19:03:01.138Z,76.10
2022-07-31T19:05:53.132Z,75.10
2022-07-31T19:08:41.810Z,74.80
2022-07-31T19:11:30.287Z,74.50
2022-07-31T19:14:18.782Z,74.37
2022-07-31T19:17:08.422Z,74.60
2022-07-31T19:20:01.373Z,73.90
2022-07-31T19:22:52.200Z,73.80
2022-07-31T19:26:03.126Z,75.27
2022-07-31T19:28:49.440Z,74.22
2022-07-31T19:31:38.291Z,73.47
2022-07-31T19:34:26.727Z,73.10
2022-07-31T19:37:17.382Z,71.40
2022-07-31T19:40:10.340Z,71.43
2022-07-31T19:42:59.791Z,71.65
2022-07-31T19:46:02.505Z,71.55
2022-07-31T19:48:56.974Z,72.23
2022-07-31T19:51:45.755Z,71.07
2022-07-31T19:54:34.313Z,69.03
2022-07-31T19:57:24.724Z,69.33
2022-07-31T20:00:14.227Z,69.30
2022-07-31T20:03:02.743Z,68.28
2022-07-31T20:05:51.197Z,68.13
2022-07-31T20:08:39.823Z,68.35
2022-07-31T20:11:28.418Z,67.53
2022-07-31T20:14:18.462Z,68.32
2022-07-31T20:17:07.041Z,67.57
2022-07-31T20:20:15.022Z,67.33
2022-07-31T20:23:04.073Z,68.00
2022-07-31T20:25:52.482Z,67.20
2022-07-31T20:28:41.450Z,66.47
2022-07-31T20:31:31.392Z,66.13
2022-07-31T20:34:19.871Z,65.82
2022-07-31T20:37:08.286Z,65.95
2022-07-31T20:39:56.737Z,65.95
2022-07-31T20:42:45.121Z,66.22
2022-07-31T20:45:33.585Z,65.43
2022-07-31T20:48:32.829Z,66.27
2022-07-31T20:51:23.425Z,64.32
2022-07-31T20:54:11.966Z,65.30
2022-07-31T20:57:00.406Z,64.22
2022-07-31T20:59:48.847Z,64.57
2022-07-31T21:02:37.409Z,65.32
2022-07-31T21:05:29.467Z,65.50
2022-07-31T21:08:18.348Z,65.82
2022-07-31T21:11:06.791Z,66.57
2022-07-31T21:13:55.174Z,65.75
2022-07-31T21:16:43.908Z,66.85
2022-07-31T21:19:32.266Z,67.70
2022-07-31T21:22:22.125Z,67.10
2022-07-31T21:25:11.461Z,67.88
2022-07-31T21:28:00.268Z,68.32
2022-07-31T21:30:49.297Z,68.68
2022-07-31T21:33:38.449Z,68.45
2022-07-31T21:36:27.322Z,68.60
2022-07-31T21:39:18.866Z,69.80
2022-07-31T21:42:08.542Z,70.18
2022-07-31T21:44:57.595Z,70.50
2022-07-31T21:47:52.875Z,72.22
2022-07-31T21:50:43.484Z,70.95
2022-07-31T21:53:31.984Z,71.47
2022-07-31T21:56:21.862Z,71.32
2022-07-31T21:59:10.257Z,72.65
2022-07-31T22:02:02.127Z,72.50
2022-07-31T22:05:08.107Z,72.40
2022-07-31T22:07:56.606Z,73.30
2022-07-31T22:10:45.671Z,73.27
2022-07-31T22:13:35.646Z,72.10
2022-07-31T22:16:24.152Z,72.93
2022-07-31T22:19:12.712Z,72.00
2022-07-31T22:22:02.522Z,71.50
2022-07-31T22:24:51.366Z,72.65
2022-07-31T22:27:56.518Z,72.68
2022-07-31T22:30:46.955Z,72.63
2022-07-31T22:33:35.604Z,72.50
2022-07-31T22:36:26.898Z,73.28
2022-07-31T22:39:18.420Z,72.60
2022-07-31T22:42:07.927Z,73.22
2022-07-31T22:44:57.154Z,71.70
2022-07-31T22:47:47.267Z,72.05
2022-07-31T22:50:36.195Z,71.82
2022-07-31T22:53:25.121Z,72.30
2022-07-31T22:56:13.545Z,72.43
2022-07-31T22:59:02.017Z,72.43
2022-07-31T23:01:50.352Z,72.65
2022-07-31T23:04:40.773Z,73.40
2022-07-31T23:07:29.168Z,72.47
2022-07-31T23:10:19.153Z,72.70
2022-07-31T23:13:07.541Z,72.80
2022-07-31T23:15:56.036Z,72.45
2022-07-31T23:18:44.427Z,72.43
2022-07-31T23:21:34.264Z,73.72
2022-07-31T23:24:22.757Z,73.57
2022-07-31T23:27:11.065Z,73.25
2022-07-31T23:29:59.879Z,73.35
2022-07-31T23:32:48.578Z,73.28
2022-07-31T23:35:36.945Z,74.07
2022-07-31T23:38:27.208Z,72.73
2022-07-31T23:41:15.715Z,73.50
2022-07-31T23:44:03.265Z,74.82
2022-07-31T23:46:53.166Z,74.60
2022-07-31T23:49:43.099Z,74.63
2022-07-31T23:52:31.823Z,73.45
2022-07-31T23:55:21.807Z,73.50
2022-07-31T23:58:12.566Z,74.50
